Grand Ronde, Oregon
Current Conditions -  °F | °C
As of 7:53 PM on Tuesday 21 Oct 2014 (Local Time) from KMMV Reporting Station
Overcast Overcast  
Wind Chill: 57°   Ceiling: 6000
Heat Index: 57°   Visibility: 10mi
Dew Point: 51°   Wind: 3mph
Humidity: 81%   Direction: 140°SE
Pressure: 29.9"   Gusts: NA
Location:  45.06°N, 123.61°W
Report Text: KMMV 220253Z AUTO 14003KT 10SM OVC060 14/11 A2990 RMK AO2 SLP124 60000 T01390106 58018 $
Loading
Personal Weather Stations






























Interactive Weather Map
Tropical Storm Tracking
New forecast layout! Learn more

10-Day Weather Forecast

Advertisements
Track Severe Weather on mobile